Latest Weather Observations for Pirlangimpi

IDD60901

Issued at 7:21 pm CST Sunday 20 August 2017 (issued every 10 minutes, with the page automatically refreshed every 10 minutes)

About weather observations | Map of Darwin area stations | Latest observations for Darwin area | Other Formats
Station Details ID: 014142 Name: PIRLANGIMPI AIRPORT Lat: -11.40 Lon: 130.42 Height: 18.3 m
Data from the previous 72 hours. | See also: Recent months at Pirlangimpi
Date/Time
CST
Temp
°C
App
Temp
°C
Dew
Point
°C
Rel
Hum
%
Delta-T
°C
Wind Press
QNH
hPa
Press
MSL
hPa
Rain since
9am
mm
Dir  Spd
km/h
Gust
km/h
Spd
kts
Gust
kts
20/07:00pm 27.0 30.0 20.1 66 4.5 E 4 7 2 4 1011.2 1011.1 0.0
20/06:30pm 28.3 30.2 19.8 60 5.6 ENE 9 13 5 7 1011.1 1011.0 0.0
20/06:00pm 29.6 30.9 19.3 54 6.7 ENE 11 17 6 9 1010.9 1010.8 0.0
20/05:30pm 30.8 33.1 19.5 51 7.4 NE 6 13 3 7 1010.6 1010.5 0.0
20/05:00pm 31.3 33.4 19.3 49 7.8 ENE 7 13 4 7 1010.4 1010.3 0.0
20/04:30pm 32.5 32.7 16.8 39 10.0 ENE 11 17 6 9 1010.4 1010.3 0.0
20/04:00pm 32.5 34.9 19.7 46 8.4 NNE 6 15 3 8 1010.4 1010.3 0.0
20/03:30pm 32.9 35.0 19.4 45 8.9 NNE 7 13 4 7 1010.6 1010.5 0.0
20/03:00pm 33.2 34.0 18.2 41 9.7 E 11 19 6 10 1011.0 1010.9 0.0
20/02:30pm 34.0 34.4 17.2 36 10.8 ENE 11 19 6 10 1011.5 1011.4 0.0
20/02:00pm 33.5 33.3 16.8 36 10.6 ENE 13 22 7 12 1011.8 1011.7 0.0
20/01:30pm 33.4 33.4 17.1 37 10.4 ENE 13 26 7 14 1012.2 1012.1 0.0
20/01:00pm 33.8 34.3 18.3 39 10.1 ENE 13 26 7 14 1012.8 1012.7 0.0
20/12:30pm 32.6 32.9 18.8 44 9.0 ENE 15 24 8 13 1013.2 1013.1 0.0
20/12:00pm 30.8 30.5 18.2 47 8.1 E 17 28 9 15 1013.6 1013.5 0.0
20/11:30am 31.0 30.4 18.4 47 8.1 E 19 32 10 17 1013.9 1013.8 0.0
20/11:00am 30.5 30.0 17.9 47 8.1 ESE 17 30 9 16 1014.3 1014.2 0.0
20/10:30am 30.3 30.9 18.7 50 7.5 E 13 20 7 11 1014.6 1014.5 0.0
20/10:00am 28.9 30.0 20.4 60 5.6 E 15 20 8 11 1014.7 1014.6 0.0
20/09:30am 27.8 29.9 20.9 66 4.6 E 11 19 6 10 1014.6 1014.5 0.0
20/09:00am 26.3 29.3 21.9 77 2.9 E 9 15 5 8 1014.5 1014.4 0.0
20/08:30am 24.7 28.2 22.2 86 1.7 ENE 7 11 4 6 1014.5 1014.4 0.0
20/08:00am 22.2 26.6 21.4 95 0.5 CALM 0 4 0 2 1014.3 1014.2 0.0
20/07:30am 20.9 24.3 20.1 95 0.5 NE 2 4 1 2 1014.0 1013.9 0.0
20/07:00am 20.6 23.7 19.6 94 0.6 NE 2 4 1 2 1013.8 1013.7 0.0
20/06:30am 20.8 24.4 19.8 94 0.6 CALM 0 0 0 0 1013.5 1013.4 0.0
20/06:00am 21.1 24.8 19.9 93 0.8 CALM 0 0 0 0 1013.2 1013.1 0.0
20/05:30am 21.6 25.2 20.6 94 0.6 ENE 2 2 1 1 1012.9 1012.8 0.0
20/05:00am 21.4 24.7 20.0 92 0.9 E 2 4 1 2 1012.7 1012.6 0.0
20/04:30am 21.8 25.7 20.4 92 0.9 CALM 0 0 0 0 1012.8 1012.7 0.0
20/04:00am 22.3 26.4 20.8 91 1.0 CALM 0 0 0 0 1012.9 1012.8 0.0
20/03:30am 22.7 26.7 21.3 92 0.9 ESE 2 4 1 2 1013.0 1012.9 0.0
20/03:00am 22.9 26.8 21.9 94 0.7 SE 4 6 2 3 1013.1 1013.0 0.0
20/02:30am 22.0 26.0 20.5 91 1.0 CALM 0 0 0 0 1013.1 1013.0 0.0
20/02:00am 22.2 26.3 20.8 92 0.9 CALM 0 0 0 0 1013.0 1012.9 0.0
20/01:30am 22.2 26.3 20.7 91 1.0 CALM 0 0 0 0 1013.1 1013.0 0.0
20/01:00am 22.2 26.1 20.3 89 1.2 CALM 0 0 0 0 1013.4 1013.3 0.0
20/12:30am 22.4 26.1 20.7 90 1.1 ENE 2 2 1 1 1013.6 1013.5 0.0
20/12:00am 22.2 26.1 20.3 89 1.2 CALM 0 2 0 1 1013.7 1013.6 0.0
 
Date/Time
CST
Temp
°C
App
Temp
°C
Dew
Point
°C
Rel
Hum
%
Delta-T
°C
Wind Press
QNH
hPa
Press
MSL
hPa
Rain since
9am
mm
Dir  Spd
km/h
Gust
km/h
Spd
kts
Gust
kts
19/11:30pm 22.5 26.5 20.6 89 1.2 CALM 0 0 0 0 1013.6 1013.5 0.0
19/11:00pm 22.7 26.7 20.6 88 1.4 CALM 0 0 0 0 1013.7 1013.6 0.0
19/10:30pm 22.9 26.9 20.6 87 1.5 CALM 0 0 0 0 1013.5 1013.4 0.0
19/10:00pm 23.3 27.4 20.8 86 1.6 CALM 0 0 0 0 1013.4 1013.3 0.0
19/09:30pm 23.6 27.5 21.1 86 1.6 N 2 2 1 1 1013.3 1013.2 0.0
19/09:00pm 24.1 27.8 21.4 85 1.8 N 4 7 2 4 1013.0 1012.9 0.0
19/08:30pm 24.3 28.5 21.0 82 2.2 CALM 0 2 0 1 1012.9 1012.8 0.0
19/08:00pm 24.9 28.6 21.4 81 2.3 N 4 7 2 4 1012.6 1012.5 0.0
19/07:30pm 25.5 29.1 21.2 77 2.8 N 4 6 2 3 1012.3 1012.2 0.0
19/07:00pm 26.2 29.6 21.0 73 3.4 N 4 7 2 4 1012.1 1012.0 0.0
19/06:30pm 27.2 30.3 21.0 69 4.1 NNE 6 9 3 5 1011.7 1011.6 0.0
19/06:00pm 28.4 31.8 20.9 64 5.0 NNE 4 11 2 6 1011.4 1011.3 0.0
19/05:30pm 29.8 33.4 22.0 63 5.3 NNW 6 9 3 5 1011.2 1011.1 0.0
19/05:00pm 30.2 33.5 21.8 60 5.7 WNW 7 15 4 8 1011.3 1011.2 0.0
19/04:30pm 30.9 34.0 22.2 59 5.9 NW 9 15 5 8 1011.2 1011.1 0.0
19/04:00pm 31.0 33.4 22.3 60 5.9 NW 13 22 7 12 1011.2 1011.1 0.0
19/03:30pm 31.6 34.1 21.7 55 6.7 NW 11 19 6 10 1011.3 1011.2 0.0
19/03:00pm 34.4 35.3 18.4 38 10.4 ENE 11 22 6 12 1011.4 1011.3 0.0
19/02:30pm 34.8 33.6 14.1 28 12.7 E 13 24 7 13 1011.5 1011.4 0.0
19/02:00pm 34.3 33.2 13.2 28 12.8 ENE 11 26 6 14 1011.9 1011.8 0.0
19/01:30pm 34.9 35.1 15.7 31 12.1 E 9 17 5 9 1012.2 1012.1 0.0
19/01:00pm 33.6 33.3 16.5 36 10.8 ESE 13 24 7 13 1012.8 1012.7 0.0
19/12:30pm 32.2 31.7 16.9 40 9.7 ESE 15 24 8 13 1013.4 1013.3 0.0
19/12:00pm 33.0 33.8 19.1 43 9.1 ESE 13 20 7 11 1014.0 1013.9 0.0
19/11:30am 31.7 32.0 17.9 43 8.9 SE 13 22 7 12 1014.5 1014.4 0.0
19/11:00am 30.7 32.2 18.8 49 7.7 ESE 9 19 5 10 1015.0 1014.9 0.0
19/10:30am 29.8 30.8 18.6 51 7.2 SE 11 17 6 9 1015.2 1015.1 0.0
19/10:00am 29.2 31.1 19.8 57 6.2 E 9 17 5 9 1015.2 1015.1 0.0
19/09:30am 27.6 29.9 19.9 63 5.0 ESE 7 13 4 7 1015.2 1015.1 0.0
19/09:00am 26.2 29.3 21.0 73 3.4 SE 6 9 3 5 1015.0 1014.9 0.2
19/08:30am 24.9 28.3 21.0 79 2.6 ESE 4 6 2 3 1014.7 1014.6 0.2
19/08:00am 22.6 25.8 20.5 88 1.4 E 4 6 2 3 1014.6 1014.5 0.0
19/07:30am 21.2 23.7 19.8 92 0.9 E 6 6 3 3 1014.4 1014.3 0.0
19/07:00am 21.1 24.2 19.6 91 1.0 ESE 2 4 1 2 1014.1 1014.0 0.0
19/06:30am 21.3 24.6 19.9 92 0.9 ESE 2 6 1 3 1013.8 1013.7 0.0
19/06:00am 21.8 25.3 20.4 92 0.9 SE 2 4 1 2 1013.4 1013.3 0.0
19/05:30am 21.9 25.1 20.5 92 0.9 SE 4 6 2 3 1013.2 1013.1 0.0
19/05:00am 22.2 25.6 21.0 93 0.8 SE 4 6 2 3 1012.9 1012.8 0.0
19/04:30am 22.5 26.5 21.3 93 0.8 SSE 2 4 1 2 1012.8 1012.7 0.0
19/04:00am 22.5 26.1 21.3 93 0.8 SE 4 6 2 3 1012.9 1012.8 0.0
19/03:30am 22.5 26.4 21.1 92 0.9 SE 2 2 1 1 1013.1 1013.0 0.0
19/03:00am 22.6 26.2 21.2 92 0.9 SSE 4 6 2 3 1013.4 1013.3 0.0
19/02:30am 22.6 26.2 21.2 92 0.9 SSE 4 6 2 3 1013.4 1013.3 0.0
19/02:00am 22.2 25.5 20.8 92 0.9 SSE 4 6 2 3 1013.6 1013.5 0.0
19/01:30am 21.7 25.5 20.2 91 1.0 CALM 0 0 0 0 1013.6 1013.5 0.0
19/01:00am 22.0 25.7 19.9 88 1.3 CALM 0 0 0 0 1013.7 1013.6 0.0
19/12:30am 22.2 26.1 20.3 89 1.2 CALM 0 0 0 0 1013.8 1013.7 0.0
19/12:00am 22.3 26.1 20.2 88 1.4 CALM 0 0 0 0 1013.9 1013.8 0.0
 
Date/Time
CST
Temp
°C
App
Temp
°C
Dew
Point
°C
Rel
Hum
%
Delta-T
°C
Wind Press
QNH
hPa
Press
MSL
hPa
Rain since
9am
mm
Dir  Spd
km/h
Gust
km/h
Spd
kts
Gust
kts
18/11:30pm 22.8 26.7 20.3 86 1.6 CALM 0 0 0 0 1013.8 1013.7 0.0
18/11:00pm 22.9 26.8 20.4 86 1.6 CALM 0 0 0 0 1013.7 1013.6 0.0
18/10:30pm 23.6 27.6 20.5 83 2.0 CALM 0 0 0 0 1013.7 1013.6 0.0
18/10:00pm 24.8 28.6 20.9 79 2.6 E 2 7 1 4 1013.5 1013.4 0.0
18/09:30pm 25.3 28.4 21.4 79 2.6 ENE 7 15 4 8 1013.2 1013.1 0.0
18/09:00pm 25.2 28.1 21.1 78 2.7 NE 7 13 4 7 1012.8 1012.7 0.0
18/08:30pm 25.3 28.2 21.0 77 2.8 NE 7 13 4 7 1012.6 1012.5 0.0
18/08:00pm 25.5 28.4 20.7 75 3.1 NE 6 9 3 5 1012.2 1012.1 0.0
18/07:30pm 25.9 28.7 20.5 72 3.5 NE 6 13 3 7 1011.8 1011.7 0.0
18/07:00pm 26.6 28.7 20.2 68 4.2 NE 9 17 5 9 1011.5 1011.4 0.0
18/06:30pm 27.5 29.7 20.3 65 4.7 NE 9 17 5 9 1011.1 1011.0 0.0
18/06:00pm 28.8 29.8 19.4 56 6.1 ENE 13 19 7 10 1010.7 1010.6 0.0
18/05:30pm 29.6 29.8 19.3 54 6.7 ENE 17 24 9 13 1010.5 1010.4 0.0
18/05:00pm 31.1 31.2 19.1 48 7.8 ENE 17 24 9 13 1010.2 1010.1 0.0
18/04:30pm 32.6 32.9 18.8 44 9.0 ENE 15 26 8 14 1010.0 1009.9 0.0
18/04:00pm 33.6 34.0 18.1 39 10.0 ENE 13 22 7 12 1009.9 1009.8 0.0
18/03:30pm 33.8 33.6 17.5 38 10.5 ENE 15 22 8 12 1010.0 1009.9 0.0
18/03:00pm 33.1 32.4 16.5 37 10.5 E 15 24 8 13 1010.4 1010.3 0.0
18/02:30pm 33.3 33.1 17.5 39 10.1 NE 15 24 8 13 1010.5 1010.4 0.0
18/02:00pm 33.4 34.4 18.7 41 9.6 NE 11 22 6 12 1010.9 1010.8 0.0
18/01:30pm 33.8 34.1 18.7 40 9.9 ENE 15 30 8 16 1011.2 1011.1 0.0
18/01:00pm 33.0 33.3 19.5 45 8.9 ENE 17 28 9 15 1011.7 1011.6 0.0
18/12:30pm 32.3 32.7 18.1 42 9.2 E 13 24 7 13 1012.0 1011.9 0.0
18/12:00pm 31.9 32.5 19.5 47 8.1 E 15 26 8 14 1012.4 1012.3 0.0
18/11:30am 31.5 31.6 19.2 48 8.0 E 17 26 9 14 1013.1 1013.0 0.0
18/11:00am 30.8 31.1 18.8 48 7.8 E 15 28 8 15 1013.5 1013.4 0.0
18/10:30am 30.0 30.3 19.7 54 6.7 E 17 26 9 14 1013.8 1013.7 0.0
18/10:00am 29.5 30.4 20.1 57 6.2 E 15 28 8 15 1013.8 1013.7 0.0
18/09:30am 28.9 31.3 20.9 62 5.3 E 9 19 5 10 1013.8 1013.7 0.0
18/09:00am 27.0 29.5 21.1 70 3.9 E 9 17 5 9 1013.9 1013.8 0.0
18/08:30am 25.8 28.4 21.2 76 3.0 E 9 13 5 7 1013.7 1013.6 0.0
18/08:00am 24.9 27.8 21.0 79 2.6 E 7 9 4 5 1013.4 1013.3 0.0
18/07:30am 24.0 26.8 20.9 83 2.0 E 7 11 4 6 1013.1 1013.0 0.0
18/07:00am 23.8 26.7 21.1 85 1.8 E 7 11 4 6 1012.8 1012.7 0.0
18/06:30am 23.8 27.2 21.7 88 1.4 E 6 9 3 5 1012.3 1012.2 0.0
18/06:00am 23.2 26.5 21.5 90 1.1 E 6 7 3 4 1011.9 1011.8 0.0
18/05:30am 22.8 27.2 21.3 91 1.0 CALM 0 0 0 0 1011.5 1011.4 0.0
18/05:00am 22.9 27.4 21.5 92 0.9 CALM 0 4 0 2 1011.4 1011.3 0.0
18/04:30am 23.0 27.5 21.5 91 1.0 CALM 0 0 0 0 1011.1 1011.0 0.0
18/04:00am 23.2 27.7 21.6 91 1.1 CALM 0 0 0 0 1011.1 1011.0 0.0
18/03:30am 23.5 28.1 21.8 90 1.1 CALM 0 2 0 1 1011.1 1011.0 0.0
18/03:00am 23.1 27.6 21.5 91 1.1 CALM 0 0 0 0 1011.2 1011.1 0.0
18/02:30am 23.2 27.7 21.6 91 1.1 CALM 0 2 0 1 1011.2 1011.1 0.0
18/02:00am 23.2 27.7 21.5 90 1.1 CALM 0 0 0 0 1011.3 1011.2 0.0
18/01:30am 23.6 28.3 21.9 90 1.1 CALM 0 0 0 0 1011.5 1011.4 0.0
18/01:00am 23.7 28.4 22.0 90 1.1 CALM 0 0 0 0 1011.8 1011.7 0.0
18/12:30am 23.4 28.0 21.7 90 1.1 CALM 0 0 0 0 1011.9 1011.8 0.0
18/12:00am 23.5 28.1 21.8 90 1.1 CALM 0 0 0 0 1011.8 1011.7 0.0
 
Date/Time
CST
Temp
°C
App
Temp
°C
Dew
Point
°C
Rel
Hum
%
Delta-T
°C
Wind Press
QNH
hPa
Press
MSL
hPa
Rain since
9am
mm
Dir  Spd
km/h
Gust
km/h
Spd
kts
Gust
kts
17/11:30pm 24.0 28.9 22.3 90 1.1 CALM 0 0 0 0 1011.9 1011.8 0.0
17/11:00pm 24.2 29.1 22.3 89 1.3 CALM 0 0 0 0 1011.9 1011.8 0.0
17/10:30pm 24.4 29.3 22.3 88 1.4 CALM 0 0 0 0 1011.9 1011.8 0.0
17/10:00pm 24.6 29.5 22.3 87 1.5 CALM 0 0 0 0 1011.7 1011.6 0.0
17/09:30pm 24.8 29.3 22.3 86 1.7 NNE 2 4 1 2 1011.6 1011.5 0.0
17/09:00pm 24.9 28.9 22.0 84 1.9 N 4 6 2 3 1011.4 1011.3 0.0
17/08:30pm 25.1 29.4 22.0 83 2.1 N 2 4 1 2 1011.0 1010.9 0.0
17/08:00pm 25.6 29.9 21.9 80 2.5 N 2 4 1 2 1010.7 1010.6 0.0
17/07:30pm 26.3 30.6 21.9 77 2.9 NNE 2 6 1 3 1010.5 1010.4 0.0

Latest Capital City Observations: Canberra | Sydney | Melbourne | Brisbane | Adelaide | Perth | Hobart | Darwin

Other Formats:

Comma delimited format used in spreadsheet applications
http://www.bom.gov.au/fwo/IDD60901/IDD60901.94119.axf

JavaScript Object Notation format (JSON) in row-major order
http://www.bom.gov.au/fwo/IDD60901/IDD60901.94119.json